Time;durP1;ratioP1;P1;durP2;ratioP2;P2;SDS_P1;SDS_P2;PMS_P1;PMS_P2;Temp;Humidity;BMP_temperature;BMP_pressure;BME280_temperature;BME280_humidity;BME280_pressure;Samples;Min_cycle;Max_cycle;Signal;HPM_P1;HPM_P2
2022/01/12 05:13:01;;;;;;;;;18.67;12.67;;;;;;;;6494200;31;8870;-52
2022/01/12 05:19:05;;;;;;;;;16.67;15.67;;;;;;;;6493623;39;8994;-55
2022/01/12 05:25:08;;;;;;;;;16.67;15.33;;;;;;;;6494231;39;8986;-54
2022/01/12 05:31:31;;;;;;;;;16.33;12.67;;;;;;;;6492841;46;8870;-52
2022/01/12 05:37:33;;;;;;;;;19.00;19.00;;;;;;;;6493237;39;8921;-52
2022/01/12 05:43:37;;;;;;;;;19.00;15.00;;;;;;;;6493195;31;8882;-53
2022/01/12 05:49:43;;;;;;;;;13.00;13.00;;;;;;;;6493484;39;8862;-56
2022/01/12 05:55:50;;;;;;;;;14.33;10.67;;;;;;;;6493401;39;8907;-50
2022/01/12 06:01:52;;;;;;;;;16.00;15.00;;;;;;;;6492935;31;8910;-52
2022/01/12 06:07:55;;;;;;;;;18.00;14.33;;;;;;;;6493368;46;8871;-56
2022/01/12 06:13:58;;;;;;;;;13.67;12.33;;;;;;;;6493610;39;8874;-52
2022/01/12 06:20:05;;;;;;;;;15.00;15.00;;;;;;;;6492903;39;8922;-51
2022/01/12 06:26:40;;;;;;;;;14.67;13.00;;;;;;;;6489923;46;8846;-51
2022/01/12 06:32:43;;;;;;;;;19.00;15.33;;;;;;;;6493018;39;8796;-49
2022/01/12 06:38:45;;;;;;;;;17.33;15.00;;;;;;;;6492568;39;8959;-50
2022/01/12 06:44:48;;;;;;;;;19.67;16.00;;;;;;;;6492736;39;9236;-53
2022/01/12 06:50:50;;;;;;;;;13.00;13.00;;;;;;;;6492365;46;8838;-50
2022/01/12 06:56:53;;;;;;;;;24.00;16.00;;;;;;;;6491874;39;8914;-49
2022/01/12 07:02:55;;;;;;;;;12.00;12.00;;;;;;;;6492949;39;8906;-48
2022/01/12 07:09:06;;;;;;;;;18.00;17.00;;;;;;;;6491504;39;9968;-51
2022/01/12 07:15:33;;;;;;;;;18.00;15.33;;;;;;;;6492299;31;8873;-49
2022/01/12 07:21:35;;;;;;;;;25.67;22.00;;;;;;;;6492142;47;8918;-50
2022/01/12 07:27:40;;;;;;;;;24.33;22.67;;;;;;;;6491782;47;8850;-51
2022/01/12 07:33:43;;;;;;;;;21.00;16.67;;;;;;;;6491564;39;8839;-48
2022/01/12 07:39:46;;;;;;;;;19.00;19.00;;;;;;;;6490347;46;8926;-47
2022/01/12 07:45:48;;;;;;;;;19.00;17.33;;;;;;;;6489307;31;8887;-51
2022/01/12 07:51:50;;;;;;;;;16.00;14.33;;;;;;;;6490843;31;8920;-52
2022/01/12 07:57:53;;;;;;;;;16.67;12.33;;;;;;;;6489825;39;8913;-48
2022/01/12 08:03:55;;;;;;;;;23.00;18.50;;;;;;;;6493800;39;8922;-52
2022/01/12 08:09:57;;;;;;;;;22.00;21.00;;;;;;;;6493513;39;9795;-53
2022/01/12 08:16:00;;;;;;;;;31.00;23.33;;;;;;;;6492536;39;8884;-49
2022/01/12 08:22:03;;;;;;;;;20.00;18.75;;;;;;;;6492940;39;8858;-49
2022/01/12 08:28:06;;;;;;;;;24.50;19.00;;;;;;;;6491027;31;8890;-50
2022/01/12 08:34:10;;;;;;;;;19.25;15.50;;;;;;;;6492149;39;8879;-49
2022/01/12 08:40:17;;;;;;;;;19.00;19.00;;;;;;;;6492074;46;8964;-51
2022/01/12 08:46:19;;;;;;;;;16.67;14.67;;;;;;;;6489872;39;8894;-48
2022/01/12 08:52:28;;;;;;;;;23.33;19.33;;;;;;;;6490202;39;8807;-48
2022/01/12 08:58:30;;;;;;;;;19.67;18.00;;;;;;;;6490532;31;9946;-51
2022/01/12 09:04:33;;;;;;;;;18.33;17.33;;;;;;;;6488554;39;8918;-52
2022/01/12 09:10:35;;;;;;;;;19.50;18.25;;;;;;;;6486642;39;8867;-53
2022/01/12 09:16:38;;;;;;;;;24.50;21.00;;;;;;;;8111816;36;8957;-52
2022/01/12 09:22:40;;;;;;;;;16.75;12.75;;;;;;;;6487887;46;8970;-51
2022/01/12 09:28:42;;;;;;;;;19.75;18.25;;;;;;;;6488500;39;9541;-48
2022/01/12 09:34:45;;;;;;;;;21.50;20.00;;;;;;;;6488522;31;8932;-51
2022/01/12 09:40:51;;;;;;;;;21.00;19.50;;;;;;;;6488009;46;8878;-51
2022/01/12 09:46:53;;;;;;;;;26.75;23.50;;;;;;;;6488445;39;9046;-50
2022/01/12 09:52:59;;;;;;;;;21.25;17.00;;;;;;;;6487742;39;8869;-51
2022/01/12 09:59:01;;;;;;;;;27.00;21.67;;;;;;;;6486654;39;8997;-51
2022/01/12 10:05:06;;;;;;;;;25.00;22.67;;;;;;;;6488459;39;8964;-52
2022/01/12 10:11:12;;;;;;;;;29.00;21.00;;;;;;;;6488051;46;8850;-51
2022/01/12 10:17:32;;;;;;;;;26.75;21.75;;;;;;;;6488402;31;8918;-50
2022/01/12 10:23:38;;;;;;;;;20.50;20.50;;;;;;;;8110972;36;9017;-52
2022/01/12 10:29:41;;;;;;;;;28.25;19.00;;;;;;;;6487409;46;8901;-52
2022/01/12 10:35:44;;;;;;;;;29.50;24.50;;;;;;;;6487712;39;8925;-48
2022/01/12 10:41:57;;;;;;;;;24.00;21.50;;;;;;;;6487366;39;8957;-51
2022/01/12 10:48:02;;;;;;;;;32.75;29.00;;;;;;;;6487439;39;8954;-48
2022/01/12 10:54:04;;;;;;;;;18.33;16.67;;;;;;;;6486720;39;8866;-48
2022/01/12 11:00:06;;;;;;;;;29.00;26.50;;;;;;;;6487401;46;8959;-51
2022/01/12 11:06:10;;;;;;;;;26.00;22.00;;;;;;;;6487085;46;8913;-52
2022/01/12 11:12:13;;;;;;;;;30.75;27.75;;;;;;;;6488278;39;8871;-54
2022/01/12 11:18:19;;;;;;;;;38.00;26.50;;;;;;;;6487665;39;8964;-54
2022/01/12 11:24:25;;;;;;;;;33.50;29.50;;;;;;;;6488077;31;8949;-51
2022/01/12 11:30:28;;;;;;;;;37.25;32.00;;;;;;;;6488296;39;8920;-49
2022/01/12 11:36:38;;;;;;;;;34.50;29.50;;;;;;;;6489086;39;8962;-51
2022/01/12 11:42:41;;;;;;;;;31.50;28.50;;;;;;;;6490291;39;8846;-51
2022/01/12 11:48:59;;;;;;;;;28.00;27.67;;;;;;;;6488655;46;8859;-50
2022/01/12 11:55:12;;;;;;;;;32.67;27.00;;;;;;;;6488307;46;8932;-51
2022/01/12 12:01:15;;;;;;;;;31.25;29.75;;;;;;;;6488885;39;8945;-49
2022/01/12 12:07:18;;;;;;;;;42.25;33.75;;;;;;;;6489319;46;8968;-50
2022/01/12 12:13:21;;;;;;;;;33.50;30.00;;;;;;;;6489246;31;9363;-51
2022/01/12 12:19:24;;;;;;;;;32.50;28.50;;;;;;;;6487963;39;8894;-49
2022/01/12 12:25:28;;;;;;;;;33.25;28.50;;;;;;;;6489354;39;8921;-47
2022/01/12 12:31:31;;;;;;;;;34.67;29.67;;;;;;;;6489776;31;9031;-51
2022/01/12 12:37:55;;;;;;;;;38.25;32.75;;;;;;;;6489593;31;9583;-53
2022/01/12 12:43:57;;;;;;;;;30.33;25.00;;;;;;;;6491278;39;9590;-51
2022/01/12 12:50:02;;;;;;;;;24.50;20.00;;;;;;;;6489019;39;8835;-51
2022/01/12 12:56:08;;;;;;;;;25.00;24.00;;;;;;;;6488696;46;8924;-51
2022/01/12 13:02:11;;;;;;;;;36.67;29.00;;;;;;;;6488442;39;9410;-49
2022/01/12 13:08:14;;;;;;;;;27.33;21.33;;;;;;;;6489232;39;8841;-51
2022/01/12 13:14:17;;;;;;;;;28.67;28.67;;;;;;;;6488531;31;8898;-53
2022/01/12 13:26:32;;;;;;;;;18.67;18.67;;;;;;;;6488043;46;8969;-53
2022/01/12 13:32:37;;;;;;;;;26.67;19.67;;;;;;;;6488434;46;8961;-50
2022/01/12 13:38:46;;;;;;;;;32.00;26.67;;;;;;;;6488315;46;8911;-50
2022/01/12 13:45:14;;;;;;;;;30.00;25.00;;;;;;;;6487887;46;8928;-52
2022/01/12 13:51:24;;;;;;;;;32.67;27.67;;;;;;;;6488095;31;9595;-53
2022/01/12 13:57:27;;;;;;;;;27.33;24.00;;;;;;;;6488696;46;9021;-52
2022/01/12 14:03:29;;;;;;;;;29.00;24.33;;;;;;;;6489329;39;8934;-55
2022/01/12 14:09:38;;;;;;;;;25.67;22.67;;;;;;;;6488561;31;8902;-50
2022/01/12 14:15:40;;;;;;;;;24.67;21.67;;;;;;;;6488481;39;8945;-51
2022/01/12 14:21:57;;;;;;;;;29.67;18.67;;;;;;;;6487747;39;8918;-51
2022/01/12 14:27:59;;;;;;;;;35.33;32.67;;;;;;;;6487613;46;8874;-53
2022/01/12 14:34:02;;;;;;;;;39.67;33.00;;;;;;;;6487621;31;8849;-51
2022/01/12 14:40:07;;;;;;;;;33.33;26.00;;;;;;;;6486469;46;8919;-49
2022/01/12 14:46:09;;;;;;;;;19.67;18.67;;;;;;;;6487332;39;8928;-48
2022/01/12 14:52:11;;;;;;;;;33.33;25.67;;;;;;;;6487105;31;8878;-53
2022/01/12 14:58:17;;;;;;;;;30.33;28.00;;;;;;;;6490727;31;8917;-52
2022/01/12 15:04:21;;;;;;;;;32.33;25.00;;;;;;;;6490679;39;8922;-56
2022/01/12 15:10:26;;;;;;;;;38.33;31.67;;;;;;;;6490275;46;8921;-54
2022/01/12 15:16:28;;;;;;;;;27.67;22.00;;;;;;;;6490939;46;8928;-56
2022/01/12 15:22:31;;;;;;;;;31.67;28.00;;;;;;;;6490798;47;9000;-53
2022/01/12 15:28:34;;;;;;;;;26.33;22.00;;;;;;;;6491088;39;8945;-51
2022/01/12 15:34:37;;;;;;;;;32.33;28.67;;;;;;;;6490773;47;8861;-53
2022/01/12 15:40:42;;;;;;;;;36.00;27.00;;;;;;;;6491317;31;8899;-54
2022/01/12 15:46:44;;;;;;;;;25.67;21.33;;;;;;;;6490854;39;8854;-51
2022/01/12 15:52:46;;;;;;;;;28.67;25.33;;;;;;;;6489917;31;8834;-49
2022/01/12 15:58:48;;;;;;;;;37.67;31.33;;;;;;;;6491281;31;8921;-51
2022/01/12 16:04:50;;;;;;;;;29.67;27.33;;;;;;;;6490485;47;8957;-51
2022/01/12 16:10:57;;;;;;;;;27.33;24.00;;;;;;;;6490596;39;8933;-53
2022/01/12 16:17:04;;;;;;;;;25.67;22.33;;;;;;;;6491331;31;8980;-54
2022/01/12 16:23:06;;;;;;;;;31.67;28.00;;;;;;;;6492358;31;8853;-53
2022/01/12 16:29:10;;;;;;;;;18.67;13.00;;;;;;;;6492742;39;8879;-53
2022/01/12 16:35:14;;;;;;;;;19.33;13.00;;;;;;;;6492405;39;8944;-53
2022/01/12 16:41:17;;;;;;;;;30.33;28.00;;;;;;;;6493161;39;8902;-54
2022/01/12 16:47:20;;;;;;;;;27.67;26.33;;;;;;;;6492354;31;8914;-53
2022/01/12 16:53:22;;;;;;;;;36.33;29.67;;;;;;;;6492468;39;8933;-51
2022/01/12 16:59:24;;;;;;;;;36.67;29.33;;;;;;;;6491874;39;8917;-50
2022/01/12 17:05:27;;;;;;;;;34.67;31.00;;;;;;;;6491871;39;8918;-52
2022/01/12 17:11:29;;;;;;;;;28.00;27.00;;;;;;;;6492166;39;9832;-53
2022/01/12 17:17:41;;;;;;;;;32.33;27.00;;;;;;;;6492095;39;8863;-50
2022/01/12 17:24:01;;;;;;;;;27.00;22.67;;;;;;;;6492688;39;9054;-52
2022/01/12 17:30:06;;;;;;;;;27.00;27.00;;;;;;;;6491524;39;8851;-54
2022/01/12 17:36:40;;;;;;;;;25.00;22.00;;;;;;;;6492135;31;8972;-52
2022/01/12 17:42:44;;;;;;;;;33.33;30.67;;;;;;;;6492520;31;9024;-54
2022/01/12 17:48:48;;;;;;;;;33.67;28.33;;;;;;;;6492370;31;8897;-51
2022/01/12 17:54:56;;;;;;;;;43.00;33.33;;;;;;;;6508987;36;8907;-52
2022/01/12 18:01:00;;;;;;;;;38.00;31.00;;;;;;;;6490546;39;8849;-49
2022/01/12 18:07:02;;;;;;;;;36.33;34.67;;;;;;;;6491619;39;8963;-53
2022/01/12 18:13:05;;;;;;;;;35.33;30.33;;;;;;;;6490946;46;8901;-50
